sensor_id;sensor_type;location;lat;lon;timestamp;P1;durP1;ratioP1;P2;durP2;ratioP2
39208;SDS011;24929;51.982;4.664;2023-04-19T00:00:14;11.02;;;6.95;;
39208;SDS011;24929;51.982;4.664;2023-04-19T00:02:40;8.70;;;7.22;;
39208;SDS011;24929;51.982;4.664;2023-04-19T00:05:06;9.73;;;6.85;;
39208;SDS011;24929;51.982;4.664;2023-04-19T00:07:32;10.98;;;7.18;;
39208;SDS011;24929;51.982;4.664;2023-04-19T00:09:57;9.23;;;7.00;;
39208;SDS011;24929;51.982;4.664;2023-04-19T00:12:22;10.43;;;6.47;;
39208;SDS011;24929;51.982;4.664;2023-04-19T00:14:48;7.90;;;6.20;;
39208;SDS011;24929;51.982;4.664;2023-04-19T00:17:13;6.93;;;5.97;;
39208;SDS011;24929;51.982;4.664;2023-04-19T00:19:38;7.90;;;6.85;;
39208;SDS011;24929;51.982;4.664;2023-04-19T00:22:04;10.00;;;6.20;;
39208;SDS011;24929;51.982;4.664;2023-04-19T00:24:29;7.93;;;6.35;;
39208;SDS011;24929;51.982;4.664;2023-04-19T00:26:54;8.88;;;6.85;;
39208;SDS011;24929;51.982;4.664;2023-04-19T00:29:21;8.07;;;6.85;;
39208;SDS011;24929;51.982;4.664;2023-04-19T00:31:46;9.25;;;7.22;;
39208;SDS011;24929;51.982;4.664;2023-04-19T00:34:12;9.43;;;6.95;;
39208;SDS011;24929;51.982;4.664;2023-04-19T00:36:37;9.50;;;6.95;;
39208;SDS011;24929;51.982;4.664;2023-04-19T00:39:03;9.80;;;7.60;;
39208;SDS011;24929;51.982;4.664;2023-04-19T00:41:28;9.55;;;7.00;;
39208;SDS011;24929;51.982;4.664;2023-04-19T00:43:53;9.73;;;6.53;;
39208;SDS011;24929;51.982;4.664;2023-04-19T00:46:19;9.63;;;7.22;;
39208;SDS011;24929;51.982;4.664;2023-04-19T00:48:45;8.18;;;7.18;;
39208;SDS011;24929;51.982;4.664;2023-04-19T00:51:10;8.10;;;6.65;;
39208;SDS011;24929;51.982;4.664;2023-04-19T00:53:37;11.20;;;7.53;;
39208;SDS011;24929;51.982;4.664;2023-04-19T00:56:02;9.05;;;6.63;;
39208;SDS011;24929;51.982;4.664;2023-04-19T00:58:29;9.85;;;7.60;;
39208;SDS011;24929;51.982;4.664;2023-04-19T01:00:56;10.30;;;7.55;;
39208;SDS011;24929;51.982;4.664;2023-04-19T01:03:21;11.98;;;7.30;;
39208;SDS011;24929;51.982;4.664;2023-04-19T01:05:46;10.07;;;7.40;;
39208;SDS011;24929;51.982;4.664;2023-04-19T01:08:13;8.07;;;7.28;;
39208;SDS011;24929;51.982;4.664;2023-04-19T01:10:38;12.50;;;7.88;;
39208;SDS011;24929;51.982;4.664;2023-04-19T01:13:04;10.15;;;7.72;;
39208;SDS011;24929;51.982;4.664;2023-04-19T01:15:29;8.68;;;7.78;;
39208;SDS011;24929;51.982;4.664;2023-04-19T01:17:56;11.00;;;7.72;;
39208;SDS011;24929;51.982;4.664;2023-04-19T01:20:21;8.95;;;7.22;;
39208;SDS011;24929;51.982;4.664;2023-04-19T01:22:47;9.93;;;8.35;;
39208;SDS011;24929;51.982;4.664;2023-04-19T01:25:12;13.05;;;9.15;;
39208;SDS011;24929;51.982;4.664;2023-04-19T01:27:38;10.20;;;8.23;;
39208;SDS011;24929;51.982;4.664;2023-04-19T01:30:03;8.80;;;7.03;;
39208;SDS011;24929;51.982;4.664;2023-04-19T01:32:29;12.48;;;8.18;;
39208;SDS011;24929;51.982;4.664;2023-04-19T01:34:54;11.60;;;7.85;;
39208;SDS011;24929;51.982;4.664;2023-04-19T01:37:20;10.77;;;8.05;;
39208;SDS011;24929;51.982;4.664;2023-04-19T01:39:45;13.90;;;7.70;;
39208;SDS011;24929;51.982;4.664;2023-04-19T01:42:10;8.55;;;7.55;;
39208;SDS011;24929;51.982;4.664;2023-04-19T01:44:36;10.55;;;8.38;;
39208;SDS011;24929;51.982;4.664;2023-04-19T01:47:01;11.80;;;8.38;;
39208;SDS011;24929;51.982;4.664;2023-04-19T01:49:27;9.43;;;6.90;;
39208;SDS011;24929;51.982;4.664;2023-04-19T01:51:52;14.50;;;6.95;;
39208;SDS011;24929;51.982;4.664;2023-04-19T01:54:17;13.57;;;7.80;;
39208;SDS011;24929;51.982;4.664;2023-04-19T01:56:43;9.15;;;7.57;;
39208;SDS011;24929;51.982;4.664;2023-04-19T01:59:08;8.35;;;7.30;;
39208;SDS011;24929;51.982;4.664;2023-04-19T02:01:33;10.07;;;8.10;;
39208;SDS011;24929;51.982;4.664;2023-04-19T02:03:59;9.68;;;8.32;;
39208;SDS011;24929;51.982;4.664;2023-04-19T02:06:24;8.57;;;7.45;;
39208;SDS011;24929;51.982;4.664;2023-04-19T02:08:50;8.73;;;7.60;;
39208;SDS011;24929;51.982;4.664;2023-04-19T02:11:16;10.40;;;8.35;;
39208;SDS011;24929;51.982;4.664;2023-04-19T02:13:41;12.88;;;7.43;;
39208;SDS011;24929;51.982;4.664;2023-04-19T02:16:07;8.32;;;7.15;;
39208;SDS011;24929;51.982;4.664;2023-04-19T02:18:34;12.90;;;8.45;;
39208;SDS011;24929;51.982;4.664;2023-04-19T02:21:02;10.82;;;7.38;;
39208;SDS011;24929;51.982;4.664;2023-04-19T02:23:29;10.90;;;8.75;;
39208;SDS011;24929;51.982;4.664;2023-04-19T02:25:54;9.35;;;8.18;;
39208;SDS011;24929;51.982;4.664;2023-04-19T02:28:20;9.07;;;8.15;;
39208;SDS011;24929;51.982;4.664;2023-04-19T02:30:45;10.68;;;8.70;;
39208;SDS011;24929;51.982;4.664;2023-04-19T02:33:10;8.13;;;7.32;;
39208;SDS011;24929;51.982;4.664;2023-04-19T02:35:36;8.75;;;7.80;;
39208;SDS011;24929;51.982;4.664;2023-04-19T02:38:02;12.65;;;8.82;;
39208;SDS011;24929;51.982;4.664;2023-04-19T02:40:28;10.02;;;7.88;;
39208;SDS011;24929;51.982;4.664;2023-04-19T02:42:54;9.73;;;8.73;;
39208;SDS011;24929;51.982;4.664;2023-04-19T02:45:19;13.75;;;9.32;;
39208;SDS011;24929;51.982;4.664;2023-04-19T02:47:44;13.30;;;9.13;;
39208;SDS011;24929;51.982;4.664;2023-04-19T02:50:10;14.75;;;8.95;;
39208;SDS011;24929;51.982;4.664;2023-04-19T02:52:36;10.73;;;8.25;;
39208;SDS011;24929;51.982;4.664;2023-04-19T02:55:02;10.88;;;8.35;;
39208;SDS011;24929;51.982;4.664;2023-04-19T02:57:28;9.07;;;8.15;;
39208;SDS011;24929;51.982;4.664;2023-04-19T02:59:54;10.88;;;8.63;;
39208;SDS011;24929;51.982;4.664;2023-04-19T03:02:20;10.50;;;8.68;;
39208;SDS011;24929;51.982;4.664;2023-04-19T03:04:45;12.23;;;9.02;;
39208;SDS011;24929;51.982;4.664;2023-04-19T03:07:11;12.38;;;9.25;;
39208;SDS011;24929;51.982;4.664;2023-04-19T03:09:37;10.48;;;7.75;;
39208;SDS011;24929;51.982;4.664;2023-04-19T03:12:02;11.10;;;8.18;;
39208;SDS011;24929;51.982;4.664;2023-04-19T03:14:28;13.63;;;9.00;;
39208;SDS011;24929;51.982;4.664;2023-04-19T03:16:53;11.68;;;8.63;;
39208;SDS011;24929;51.982;4.664;2023-04-19T03:19:19;14.90;;;9.85;;
39208;SDS011;24929;51.982;4.664;2023-04-19T03:21:44;12.88;;;9.35;;
39208;SDS011;24929;51.982;4.664;2023-04-19T03:24:10;13.15;;;8.60;;
39208;SDS011;24929;51.982;4.664;2023-04-19T03:26:36;10.73;;;9.05;;
39208;SDS011;24929;51.982;4.664;2023-04-19T03:29:04;15.15;;;8.57;;
39208;SDS011;24929;51.982;4.664;2023-04-19T03:31:30;11.07;;;8.80;;
39208;SDS011;24929;51.982;4.664;2023-04-19T03:33:55;10.77;;;8.55;;
39208;SDS011;24929;51.982;4.664;2023-04-19T03:36:20;10.50;;;8.60;;
39208;SDS011;24929;51.982;4.664;2023-04-19T03:38:46;9.52;;;7.78;;
39208;SDS011;24929;51.982;4.664;2023-04-19T03:41:24;12.52;;;7.57;;
39208;SDS011;24929;51.982;4.664;2023-04-19T03:43:51;8.38;;;7.47;;
39208;SDS011;24929;51.982;4.664;2023-04-19T03:46:16;8.57;;;7.68;;
39208;SDS011;24929;51.982;4.664;2023-04-19T03:48:42;10.88;;;8.88;;
39208;SDS011;24929;51.982;4.664;2023-04-19T03:51:07;8.82;;;7.85;;
39208;SDS011;24929;51.982;4.664;2023-04-19T03:53:32;9.90;;;7.50;;
39208;SDS011;24929;51.982;4.664;2023-04-19T03:55:58;14.15;;;7.75;;
39208;SDS011;24929;51.982;4.664;2023-04-19T03:58:23;12.77;;;8.75;;
39208;SDS011;24929;51.982;4.664;2023-04-19T04:00:49;10.00;;;8.95;;
39208;SDS011;24929;51.982;4.664;2023-04-19T04:03:16;10.60;;;7.97;;
39208;SDS011;24929;51.982;4.664;2023-04-19T04:05:41;11.32;;;8.20;;
39208;SDS011;24929;51.982;4.664;2023-04-19T04:08:06;8.77;;;7.40;;
39208;SDS011;24929;51.982;4.664;2023-04-19T04:10:32;9.90;;;8.15;;
39208;SDS011;24929;51.982;4.664;2023-04-19T04:12:57;9.48;;;7.32;;
39208;SDS011;24929;51.982;4.664;2023-04-19T04:15:22;12.68;;;8.13;;
39208;SDS011;24929;51.982;4.664;2023-04-19T04:17:48;10.80;;;7.72;;
39208;SDS011;24929;51.982;4.664;2023-04-19T04:20:14;9.57;;;7.18;;
39208;SDS011;24929;51.982;4.664;2023-04-19T04:22:43;8.05;;;7.10;;
39208;SDS011;24929;51.982;4.664;2023-04-19T04:25:13;7.78;;;7.00;;
39208;SDS011;24929;51.982;4.664;2023-04-19T04:27:40;13.57;;;8.50;;
39208;SDS011;24929;51.982;4.664;2023-04-19T04:30:07;10.10;;;6.68;;
39208;SDS011;24929;51.982;4.664;2023-04-19T04:32:33;10.20;;;7.75;;
39208;SDS011;24929;51.982;4.664;2023-04-19T04:35:06;7.60;;;6.68;;
39208;SDS011;24929;51.982;4.664;2023-04-19T04:37:32;10.88;;;7.03;;
39208;SDS011;24929;51.982;4.664;2023-04-19T04:39:58;9.35;;;7.38;;
39208;SDS011;24929;51.982;4.664;2023-04-19T04:42:24;8.85;;;7.40;;
39208;SDS011;24929;51.982;4.664;2023-04-19T04:44:50;9.10;;;7.57;;
39208;SDS011;24929;51.982;4.664;2023-04-19T04:47:16;11.85;;;7.95;;
39208;SDS011;24929;51.982;4.664;2023-04-19T04:49:42;10.15;;;7.25;;
39208;SDS011;24929;51.982;4.664;2023-04-19T04:52:08;8.75;;;7.07;;
39208;SDS011;24929;51.982;4.664;2023-04-19T04:54:33;8.50;;;6.50;;
39208;SDS011;24929;51.982;4.664;2023-04-19T04:56:59;10.93;;;7.78;;
39208;SDS011;24929;51.982;4.664;2023-04-19T04:59:25;9.50;;;7.72;;
39208;SDS011;24929;51.982;4.664;2023-04-19T05:01:51;8.60;;;6.90;;
39208;SDS011;24929;51.982;4.664;2023-04-19T05:04:17;11.27;;;8.07;;
39208;SDS011;24929;51.982;4.664;2023-04-19T05:06:42;10.77;;;6.78;;
39208;SDS011;24929;51.982;4.664;2023-04-19T05:09:08;7.65;;;6.50;;
39208;SDS011;24929;51.982;4.664;2023-04-19T05:11:34;8.77;;;6.80;;
39208;SDS011;24929;51.982;4.664;2023-04-19T05:13:59;10.60;;;7.30;;
39208;SDS011;24929;51.982;4.664;2023-04-19T05:16:25;10.15;;;6.65;;
39208;SDS011;24929;51.982;4.664;2023-04-19T05:18:51;7.88;;;6.43;;
39208;SDS011;24929;51.982;4.664;2023-04-19T05:21:16;9.15;;;6.78;;
39208;SDS011;24929;51.982;4.664;2023-04-19T05:23:42;9.95;;;6.35;;
39208;SDS011;24929;51.982;4.664;2023-04-19T05:29:31;8.77;;;5.68;;
39208;SDS011;24929;51.982;4.664;2023-04-19T05:31:57;8.60;;;6.35;;
39208;SDS011;24929;51.982;4.664;2023-04-19T05:34:23;8.52;;;7.00;;
39208;SDS011;24929;51.982;4.664;2023-04-19T05:36:48;8.95;;;5.53;;
39208;SDS011;24929;51.982;4.664;2023-04-19T05:39:14;11.55;;;6.57;;
39208;SDS011;24929;51.982;4.664;2023-04-19T05:41:39;9.35;;;6.57;;
39208;SDS011;24929;51.982;4.664;2023-04-19T05:44:05;7.95;;;6.28;;
39208;SDS011;24929;51.982;4.664;2023-04-19T05:46:30;6.43;;;5.53;;
39208;SDS011;24929;51.982;4.664;2023-04-19T05:48:56;6.47;;;5.20;;
39208;SDS011;24929;51.982;4.664;2023-04-19T05:51:21;6.28;;;4.93;;
39208;SDS011;24929;51.982;4.664;2023-04-19T05:53:46;6.55;;;5.53;;
39208;SDS011;24929;51.982;4.664;2023-04-19T05:56:12;7.28;;;5.63;;
39208;SDS011;24929;51.982;4.664;2023-04-19T06:01:59;5.65;;;4.78;;
39208;SDS011;24929;51.982;4.664;2023-04-19T06:04:25;6.80;;;5.60;;
39208;SDS011;24929;51.982;4.664;2023-04-19T06:06:51;9.27;;;5.60;;
39208;SDS011;24929;51.982;4.664;2023-04-19T06:09:16;6.25;;;5.63;;
39208;SDS011;24929;51.982;4.664;2023-04-19T06:11:45;12.25;;;5.63;;
39208;SDS011;24929;51.982;4.664;2023-04-19T06:14:10;6.05;;;4.88;;
39208;SDS011;24929;51.982;4.664;2023-04-19T06:16:37;9.02;;;5.57;;
39208;SDS011;24929;51.982;4.664;2023-04-19T06:19:03;8.30;;;5.38;;
39208;SDS011;24929;51.982;4.664;2023-04-19T06:21:29;5.75;;;4.60;;
39208;SDS011;24929;51.982;4.664;2023-04-19T06:23:55;6.65;;;5.05;;
39208;SDS011;24929;51.982;4.664;2023-04-19T06:26:21;6.47;;;4.75;;
39208;SDS011;24929;51.982;4.664;2023-04-19T06:28:46;10.68;;;5.70;;
39208;SDS011;24929;51.982;4.664;2023-04-19T06:31:11;8.63;;;5.40;;
39208;SDS011;24929;51.982;4.664;2023-04-19T06:33:37;9.75;;;5.63;;
39208;SDS011;24929;51.982;4.664;2023-04-19T06:36:02;7.68;;;5.63;;
39208;SDS011;24929;51.982;4.664;2023-04-19T06:38:28;7.28;;;5.88;;
39208;SDS011;24929;51.982;4.664;2023-04-19T06:40:54;8.68;;;4.88;;
39208;SDS011;24929;51.982;4.664;2023-04-19T06:43:22;5.63;;;5.07;;
39208;SDS011;24929;51.982;4.664;2023-04-19T06:45:48;6.47;;;4.60;;
39208;SDS011;24929;51.982;4.664;2023-04-19T06:48:21;5.53;;;4.82;;
39208;SDS011;24929;51.982;4.664;2023-04-19T06:50:46;10.55;;;5.22;;
39208;SDS011;24929;51.982;4.664;2023-04-19T06:53:11;8.20;;;4.88;;
39208;SDS011;24929;51.982;4.664;2023-04-19T06:55:37;6.65;;;4.75;;
39208;SDS011;24929;51.982;4.664;2023-04-19T06:58:02;7.25;;;4.80;;
39208;SDS011;24929;51.982;4.664;2023-04-19T07:00:28;6.65;;;5.10;;
39208;SDS011;24929;51.982;4.664;2023-04-19T07:02:53;6.80;;;5.25;;
39208;SDS011;24929;51.982;4.664;2023-04-19T07:05:19;5.75;;;5.13;;
39208;SDS011;24929;51.982;4.664;2023-04-19T07:07:44;8.88;;;5.25;;
39208;SDS011;24929;51.982;4.664;2023-04-19T07:10:09;6.13;;;5.40;;
39208;SDS011;24929;51.982;4.664;2023-04-19T07:12:36;7.10;;;5.35;;
39208;SDS011;24929;51.982;4.664;2023-04-19T07:15:02;5.53;;;4.43;;
39208;SDS011;24929;51.982;4.664;2023-04-19T07:17:28;6.88;;;4.88;;
39208;SDS011;24929;51.982;4.664;2023-04-19T07:19:53;6.03;;;4.68;;
39208;SDS011;24929;51.982;4.664;2023-04-19T07:22:19;7.43;;;4.75;;
39208;SDS011;24929;51.982;4.664;2023-04-19T07:24:44;6.78;;;4.75;;
39208;SDS011;24929;51.982;4.664;2023-04-19T07:27:09;5.07;;;4.45;;
39208;SDS011;24929;51.982;4.664;2023-04-19T07:29:35;4.80;;;4.30;;
39208;SDS011;24929;51.982;4.664;2023-04-19T07:32:01;4.95;;;4.47;;
39208;SDS011;24929;51.982;4.664;2023-04-19T07:34:27;6.82;;;5.25;;
39208;SDS011;24929;51.982;4.664;2023-04-19T07:36:52;5.80;;;4.63;;
39208;SDS011;24929;51.982;4.664;2023-04-19T07:39:17;5.85;;;4.70;;
39208;SDS011;24929;51.982;4.664;2023-04-19T07:41:43;6.57;;;4.50;;
39208;SDS011;24929;51.982;4.664;2023-04-19T07:44:08;8.30;;;4.25;;
39208;SDS011;24929;51.982;4.664;2023-04-19T07:46:35;6.93;;;4.95;;
39208;SDS011;24929;51.982;4.664;2023-04-19T07:49:01;7.55;;;4.97;;
39208;SDS011;24929;51.982;4.664;2023-04-19T07:51:26;5.05;;;4.13;;
39208;SDS011;24929;51.982;4.664;2023-04-19T07:53:52;6.15;;;4.93;;
39208;SDS011;24929;51.982;4.664;2023-04-19T07:56:17;4.97;;;4.05;;
39208;SDS011;24929;51.982;4.664;2023-04-19T07:58:44;5.13;;;4.57;;
39208;SDS011;24929;51.982;4.664;2023-04-19T08:01:09;5.78;;;4.70;;
39208;SDS011;24929;51.982;4.664;2023-04-19T08:03:35;8.20;;;4.90;;
39208;SDS011;24929;51.982;4.664;2023-04-19T08:06:04;6.20;;;3.67;;
39208;SDS011;24929;51.982;4.664;2023-04-19T08:08:31;4.45;;;3.92;;
39208;SDS011;24929;51.982;4.664;2023-04-19T08:10:56;4.80;;;3.72;;
39208;SDS011;24929;51.982;4.664;2023-04-19T08:13:22;4.30;;;3.90;;
39208;SDS011;24929;51.982;4.664;2023-04-19T08:15:47;6.07;;;3.88;;
39208;SDS011;24929;51.982;4.664;2023-04-19T08:18:13;4.05;;;3.47;;
39208;SDS011;24929;51.982;4.664;2023-04-19T08:20:38;7.30;;;3.67;;
39208;SDS011;24929;51.982;4.664;2023-04-19T08:23:06;4.75;;;4.13;;
39208;SDS011;24929;51.982;4.664;2023-04-19T08:25:32;4.15;;;3.22;;
39208;SDS011;24929;51.982;4.664;2023-04-19T08:27:58;2.97;;;2.60;;
39208;SDS011;24929;51.982;4.664;2023-04-19T08:30:23;3.50;;;3.08;;
39208;SDS011;24929;51.982;4.664;2023-04-19T08:32:49;4.07;;;3.15;;
39208;SDS011;24929;51.982;4.664;2023-04-19T08:35:15;3.28;;;2.95;;
39208;SDS011;24929;51.982;4.664;2023-04-19T08:37:43;4.13;;;3.08;;
39208;SDS011;24929;51.982;4.664;2023-04-19T08:40:09;3.72;;;2.85;;
39208;SDS011;24929;51.982;4.664;2023-04-19T08:42:35;5.03;;;3.20;;
39208;SDS011;24929;51.982;4.664;2023-04-19T08:45:01;2.95;;;2.65;;
39208;SDS011;24929;51.982;4.664;2023-04-19T08:47:30;2.65;;;2.38;;
39208;SDS011;24929;51.982;4.664;2023-04-19T08:49:56;3.92;;;2.90;;
39208;SDS011;24929;51.982;4.664;2023-04-19T08:52:29;5.05;;;2.53;;
39208;SDS011;24929;51.982;4.664;2023-04-19T08:54:59;3.22;;;2.88;;
39208;SDS011;24929;51.982;4.664;2023-04-19T08:57:29;3.42;;;2.42;;
39208;SDS011;24929;51.982;4.664;2023-04-19T08:59:58;3.72;;;2.40;;
39208;SDS011;24929;51.982;4.664;2023-04-19T09:02:25;3.75;;;3.05;;
39208;SDS011;24929;51.982;4.664;2023-04-19T09:04:51;3.35;;;2.63;;
39208;SDS011;24929;51.982;4.664;2023-04-19T09:07:23;2.25;;;2.03;;
39208;SDS011;24929;51.982;4.664;2023-04-19T09:10:05;3.08;;;2.22;;
39208;SDS011;24929;51.982;4.664;2023-04-19T09:12:35;3.55;;;2.50;;
39208;SDS011;24929;51.982;4.664;2023-04-19T09:15:02;5.43;;;2.70;;
39208;SDS011;24929;51.982;4.664;2023-04-19T09:17:29;2.78;;;2.25;;
39208;SDS011;24929;51.982;4.664;2023-04-19T09:19:55;3.85;;;2.20;;
39208;SDS011;24929;51.982;4.664;2023-04-19T09:22:21;2.83;;;2.42;;
39208;SDS011;24929;51.982;4.664;2023-04-19T09:24:46;3.10;;;2.15;;
39208;SDS011;24929;51.982;4.664;2023-04-19T09:27:13;4.32;;;2.50;;
39208;SDS011;24929;51.982;4.664;2023-04-19T09:29:51;2.25;;;2.00;;
39208;SDS011;24929;51.982;4.664;2023-04-19T09:32:18;4.47;;;2.72;;
39208;SDS011;24929;51.982;4.664;2023-04-19T09:35:04;5.35;;;1.95;;
39208;SDS011;24929;51.982;4.664;2023-04-19T09:37:29;4.82;;;1.85;;
39208;SDS011;24929;51.982;4.664;2023-04-19T09:39:55;4.43;;;2.80;;
39208;SDS011;24929;51.982;4.664;2023-04-19T09:42:20;4.85;;;2.40;;
39208;SDS011;24929;51.982;4.664;2023-04-19T09:44:54;2.28;;;1.60;;
39208;SDS011;24929;51.982;4.664;2023-04-19T09:47:23;2.60;;;2.40;;
39208;SDS011;24929;51.982;4.664;2023-04-19T09:50:03;1.90;;;1.75;;
39208;SDS011;24929;51.982;4.664;2023-04-19T09:52:30;5.35;;;2.15;;
39208;SDS011;24929;51.982;4.664;2023-04-19T09:54:56;1.83;;;1.60;;
39208;SDS011;24929;51.982;4.664;2023-04-19T09:57:25;3.53;;;1.95;;
39208;SDS011;24929;51.982;4.664;2023-04-19T09:59:50;7.05;;;1.55;;
39208;SDS011;24929;51.982;4.664;2023-04-19T10:02:16;4.13;;;2.67;;
39208;SDS011;24929;51.982;4.664;2023-04-19T10:04:42;8.27;;;2.83;;
39208;SDS011;24929;51.982;4.664;2023-04-19T10:07:09;4.22;;;2.97;;
39208;SDS011;24929;51.982;4.664;2023-04-19T10:09:35;3.38;;;3.05;;
39208;SDS011;24929;51.982;4.664;2023-04-19T10:12:02;4.90;;;3.55;;
39208;SDS011;24929;51.982;4.664;2023-04-19T10:14:29;4.03;;;2.38;;
39208;SDS011;24929;51.982;4.664;2023-04-19T10:17:00;3.03;;;1.98;;
39208;SDS011;24929;51.982;4.664;2023-04-19T10:19:26;5.32;;;2.17;;
39208;SDS011;24929;51.982;4.664;2023-04-19T10:21:53;2.20;;;1.65;;
39208;SDS011;24929;51.982;4.664;2023-04-19T10:24:20;2.00;;;1.60;;
39208;SDS011;24929;51.982;4.664;2023-04-19T10:30:15;2.53;;;1.98;;
39208;SDS011;24929;51.982;4.664;2023-04-19T10:32:46;2.05;;;1.48;;
39208;SDS011;24929;51.982;4.664;2023-04-19T10:35:17;1.92;;;1.45;;
39208;SDS011;24929;51.982;4.664;2023-04-19T10:43:24;2.55;;;1.45;;
39208;SDS011;24929;51.982;4.664;2023-04-19T10:45:53;2.42;;;1.80;;
39208;SDS011;24929;51.982;4.664;2023-04-19T10:53:48;3.72;;;1.42;;
39208;SDS011;24929;51.982;4.664;2023-04-19T10:56:14;3.33;;;1.40;;
39208;SDS011;24929;51.982;4.664;2023-04-19T11:04:09;2.40;;;1.52;;
39208;SDS011;24929;51.982;4.664;2023-04-19T11:07:12;1.20;;;1.10;;
39208;SDS011;24929;51.982;4.664;2023-04-19T11:09:37;1.45;;;1.02;;
39208;SDS011;24929;51.982;4.664;2023-04-19T11:12:16;2.83;;;1.48;;
39208;SDS011;24929;51.982;4.664;2023-04-19T11:15:01;2.70;;;1.00;;
39208;SDS011;24929;51.982;4.664;2023-04-19T11:17:30;3.40;;;1.58;;
39208;SDS011;24929;51.982;4.664;2023-04-19T11:22:32;1.77;;;1.50;;
39208;SDS011;24929;51.982;4.664;2023-04-19T11:27:41;2.30;;;1.30;;
39208;SDS011;24929;51.982;4.664;2023-04-19T11:32:35;3.40;;;1.42;;
39208;SDS011;24929;51.982;4.664;2023-04-19T11:35:05;1.85;;;1.55;;
39208;SDS011;24929;51.982;4.664;2023-04-19T11:37:35;2.05;;;1.58;;
39208;SDS011;24929;51.982;4.664;2023-04-19T11:40:02;1.45;;;1.35;;
39208;SDS011;24929;51.982;4.664;2023-04-19T11:42:30;1.60;;;1.38;;
39208;SDS011;24929;51.982;4.664;2023-04-19T11:44:56;2.78;;;1.50;;
39208;SDS011;24929;51.982;4.664;2023-04-19T11:47:23;2.42;;;1.70;;
39208;SDS011;24929;51.982;4.664;2023-04-19T11:49:48;1.80;;;1.08;;
39208;SDS011;24929;51.982;4.664;2023-04-19T11:52:21;1.52;;;1.42;;
39208;SDS011;24929;51.982;4.664;2023-04-19T11:54:47;3.33;;;1.35;;
39208;SDS011;24929;51.982;4.664;2023-04-19T11:57:13;1.80;;;1.40;;
39208;SDS011;24929;51.982;4.664;2023-04-19T11:59:39;1.98;;;1.27;;
39208;SDS011;24929;51.982;4.664;2023-04-19T12:02:35;2.35;;;1.40;;
39208;SDS011;24929;51.982;4.664;2023-04-19T12:05:08;3.38;;;1.55;;
39208;SDS011;24929;51.982;4.664;2023-04-19T12:10:31;1.25;;;1.05;;
39208;SDS011;24929;51.982;4.664;2023-04-19T12:12:56;2.08;;;1.30;;
39208;SDS011;24929;51.982;4.664;2023-04-19T12:15:22;1.67;;;1.20;;
39208;SDS011;24929;51.982;4.664;2023-04-19T12:17:55;1.13;;;1.02;;
39208;SDS011;24929;51.982;4.664;2023-04-19T12:20:32;1.45;;;1.23;;
39208;SDS011;24929;51.982;4.664;2023-04-19T12:22:58;1.55;;;1.08;;
39208;SDS011;24929;51.982;4.664;2023-04-19T12:25:29;2.65;;;1.90;;
39208;SDS011;24929;51.982;4.664;2023-04-19T12:27:56;2.03;;;1.13;;
39208;SDS011;24929;51.982;4.664;2023-04-19T12:30:22;1.77;;;1.40;;
39208;SDS011;24929;51.982;4.664;2023-04-19T12:32:47;1.45;;;1.25;;
39208;SDS011;24929;51.982;4.664;2023-04-19T12:35:15;4.55;;;1.27;;
39208;SDS011;24929;51.982;4.664;2023-04-19T12:37:40;1.88;;;1.25;;
39208;SDS011;24929;51.982;4.664;2023-04-19T12:40:06;3.65;;;2.03;;
39208;SDS011;24929;51.982;4.664;2023-04-19T12:42:32;2.28;;;1.73;;
39208;SDS011;24929;51.982;4.664;2023-04-19T12:44:57;1.48;;;1.30;;
39208;SDS011;24929;51.982;4.664;2023-04-19T12:47:22;3.00;;;1.52;;
39208;SDS011;24929;51.982;4.664;2023-04-19T12:49:48;9.90;;;1.55;;
39208;SDS011;24929;51.982;4.664;2023-04-19T12:52:13;2.15;;;1.48;;
39208;SDS011;24929;51.982;4.664;2023-04-19T12:54:39;2.47;;;1.50;;
39208;SDS011;24929;51.982;4.664;2023-04-19T12:57:05;1.85;;;1.23;;
39208;SDS011;24929;51.982;4.664;2023-04-19T12:59:30;2.78;;;2.00;;
39208;SDS011;24929;51.982;4.664;2023-04-19T13:01:56;2.03;;;1.42;;
39208;SDS011;24929;51.982;4.664;2023-04-19T13:04:21;3.08;;;1.50;;
39208;SDS011;24929;51.982;4.664;2023-04-19T13:06:46;1.35;;;1.25;;
39208;SDS011;24929;51.982;4.664;2023-04-19T13:09:12;6.70;;;1.85;;
39208;SDS011;24929;51.982;4.664;2023-04-19T13:11:37;1.33;;;1.23;;
39208;SDS011;24929;51.982;4.664;2023-04-19T13:14:03;1.88;;;1.58;;
39208;SDS011;24929;51.982;4.664;2023-04-19T13:16:28;2.30;;;1.63;;
39208;SDS011;24929;51.982;4.664;2023-04-19T13:18:53;3.40;;;1.63;;
39208;SDS011;24929;51.982;4.664;2023-04-19T13:21:19;4.65;;;1.80;;
39208;SDS011;24929;51.982;4.664;2023-04-19T13:23:45;1.52;;;1.42;;
39208;SDS011;24929;51.982;4.664;2023-04-19T13:26:10;2.42;;;2.03;;
39208;SDS011;24929;51.982;4.664;2023-04-19T13:28:36;3.45;;;1.85;;
39208;SDS011;24929;51.982;4.664;2023-04-19T13:31:02;2.30;;;1.60;;
39208;SDS011;24929;51.982;4.664;2023-04-19T13:33:28;3.95;;;2.25;;
39208;SDS011;24929;51.982;4.664;2023-04-19T13:35:54;4.18;;;1.65;;
39208;SDS011;24929;51.982;4.664;2023-04-19T13:38:19;2.53;;;1.80;;
39208;SDS011;24929;51.982;4.664;2023-04-19T13:40:45;1.90;;;1.58;;
39208;SDS011;24929;51.982;4.664;2023-04-19T13:43:10;4.75;;;2.05;;
39208;SDS011;24929;51.982;4.664;2023-04-19T13:45:35;3.17;;;1.80;;
39208;SDS011;24929;51.982;4.664;2023-04-19T13:48:01;2.13;;;1.92;;
39208;SDS011;24929;51.982;4.664;2023-04-19T13:50:26;2.42;;;2.00;;
39208;SDS011;24929;51.982;4.664;2023-04-19T13:52:52;3.42;;;2.08;;
39208;SDS011;24929;51.982;4.664;2023-04-19T13:55:17;2.78;;;2.40;;
39208;SDS011;24929;51.982;4.664;2023-04-19T13:57:43;2.80;;;2.13;;
39208;SDS011;24929;51.982;4.664;2023-04-19T14:00:08;4.20;;;2.35;;
39208;SDS011;24929;51.982;4.664;2023-04-19T14:02:35;2.13;;;1.92;;
39208;SDS011;24929;51.982;4.664;2023-04-19T14:05:00;2.58;;;2.35;;
39208;SDS011;24929;51.982;4.664;2023-04-19T14:07:26;4.28;;;2.58;;
39208;SDS011;24929;51.982;4.664;2023-04-19T14:09:51;3.42;;;2.55;;
39208;SDS011;24929;51.982;4.664;2023-04-19T14:12:16;2.30;;;2.03;;
39208;SDS011;24929;51.982;4.664;2023-04-19T14:14:42;2.88;;;2.47;;
39208;SDS011;24929;51.982;4.664;2023-04-19T14:17:07;2.90;;;2.33;;
39208;SDS011;24929;51.982;4.664;2023-04-19T14:19:34;3.25;;;2.45;;
39208;SDS011;24929;51.982;4.664;2023-04-19T14:21:59;2.75;;;2.40;;
39208;SDS011;24929;51.982;4.664;2023-04-19T14:24:25;2.85;;;2.45;;
39208;SDS011;24929;51.982;4.664;2023-04-19T14:26:50;5.22;;;2.38;;
39208;SDS011;24929;51.982;4.664;2023-04-19T14:29:16;3.08;;;2.38;;
39208;SDS011;24929;51.982;4.664;2023-04-19T14:31:41;6.22;;;2.65;;
39208;SDS011;24929;51.982;4.664;2023-04-19T14:34:06;1.95;;;1.70;;
39208;SDS011;24929;51.982;4.664;2023-04-19T14:36:32;2.30;;;2.10;;
39208;SDS011;24929;51.982;4.664;2023-04-19T14:38:57;3.58;;;2.03;;
39208;SDS011;24929;51.982;4.664;2023-04-19T14:41:22;2.47;;;2.28;;
39208;SDS011;24929;51.982;4.664;2023-04-19T14:43:48;6.32;;;1.90;;
39208;SDS011;24929;51.982;4.664;2023-04-19T14:46:14;2.05;;;1.73;;
39208;SDS011;24929;51.982;4.664;2023-04-19T14:48:39;3.80;;;1.95;;
39208;SDS011;24929;51.982;4.664;2023-04-19T14:51:04;3.42;;;1.90;;
39208;SDS011;24929;51.982;4.664;2023-04-19T14:53:30;2.65;;;2.03;;
39208;SDS011;24929;51.982;4.664;2023-04-19T14:55:55;2.88;;;2.17;;
39208;SDS011;24929;51.982;4.664;2023-04-19T14:58:21;3.35;;;1.65;;
39208;SDS011;24929;51.982;4.664;2023-04-19T15:00:46;4.15;;;2.13;;
39208;SDS011;24929;51.982;4.664;2023-04-19T15:03:12;3.15;;;2.33;;
39208;SDS011;24929;51.982;4.664;2023-04-19T15:05:37;2.90;;;1.75;;
39208;SDS011;24929;51.982;4.664;2023-04-19T15:08:02;1.55;;;1.30;;
39208;SDS011;24929;51.982;4.664;2023-04-19T15:10:28;3.42;;;2.20;;
39208;SDS011;24929;51.982;4.664;2023-04-19T15:12:53;3.03;;;1.95;;
39208;SDS011;24929;51.982;4.664;2023-04-19T15:15:19;7.38;;;2.03;;
39208;SDS011;24929;51.982;4.664;2023-04-19T15:17:45;1.75;;;1.63;;